sensor_id;sensor_type;location;lat;lon;timestamp;pressure;altitude;pressure_sealevel;temperature;humidity
64253;BME280;50592;52.958;-7.470;2022-08-01T00:00:31;100816.66;;;14.24;74.32
64253;BME280;50592;52.958;-7.470;2022-08-01T00:02:57;100812.00;;;14.18;74.52
64253;BME280;50592;52.958;-7.470;2022-08-01T00:05:23;100815.81;;;14.15;74.66
64253;BME280;50592;52.958;-7.470;2022-08-01T00:07:49;100820.59;;;14.11;74.85
64253;BME280;50592;52.958;-7.470;2022-08-01T00:10:16;100826.06;;;14.10;74.89
64253;BME280;50592;52.958;-7.470;2022-08-01T00:12:43;100822.59;;;14.09;75.12
64253;BME280;50592;52.958;-7.470;2022-08-01T00:15:15;100825.56;;;14.06;75.02
64253;BME280;50592;52.958;-7.470;2022-08-01T00:17:42;100827.81;;;13.93;75.29
64253;BME280;50592;52.958;-7.470;2022-08-01T00:20:11;100826.31;;;13.90;75.66
64253;BME280;50592;52.958;-7.470;2022-08-01T00:22:37;100814.84;;;13.89;75.60
64253;BME280;50592;52.958;-7.470;2022-08-01T00:25:04;100816.00;;;13.87;75.78
64253;BME280;50592;52.958;-7.470;2022-08-01T00:27:30;100814.63;;;13.83;76.01
64253;BME280;50592;52.958;-7.470;2022-08-01T00:29:57;100809.16;;;13.84;75.87
64253;BME280;50592;52.958;-7.470;2022-08-01T00:32:23;100809.31;;;13.83;75.64
64253;BME280;50592;52.958;-7.470;2022-08-01T00:34:49;100810.41;;;13.72;76.00
64253;BME280;50592;52.958;-7.470;2022-08-01T00:37:15;100800.09;;;13.69;76.18
64253;BME280;50592;52.958;-7.470;2022-08-01T00:39:41;100797.22;;;13.62;75.92
64253;BME280;50592;52.958;-7.470;2022-08-01T00:42:11;100790.41;;;13.59;76.30
64253;BME280;50592;52.958;-7.470;2022-08-01T00:44:37;100799.38;;;13.58;76.18
64253;BME280;50592;52.958;-7.470;2022-08-01T00:47:04;100790.56;;;13.58;76.12
64253;BME280;50592;52.958;-7.470;2022-08-01T00:49:30;100797.69;;;13.57;76.08
64253;BME280;50592;52.958;-7.470;2022-08-01T00:51:56;100788.75;;;13.58;76.08
64253;BME280;50592;52.958;-7.470;2022-08-01T00:54:25;100793.75;;;13.61;76.47
64253;BME280;50592;52.958;-7.470;2022-08-01T00:56:52;100796.91;;;13.65;76.22
64253;BME280;50592;52.958;-7.470;2022-08-01T00:59:20;100789.94;;;13.64;76.50
64253;BME280;50592;52.958;-7.470;2022-08-01T01:01:47;100794.94;;;13.67;76.67
64253;BME280;50592;52.958;-7.470;2022-08-01T01:04:13;100792.59;;;13.64;76.64
64253;BME280;50592;52.958;-7.470;2022-08-01T01:09:23;100798.44;;;13.68;76.97
64253;BME280;50592;52.958;-7.470;2022-08-01T01:12:17;100795.63;;;13.69;77.00
64253;BME280;50592;52.958;-7.470;2022-08-01T01:15:08;100790.00;;;13.72;77.03
64253;BME280;50592;52.958;-7.470;2022-08-01T01:17:53;100785.00;;;13.69;77.10
64253;BME280;50592;52.958;-7.470;2022-08-01T01:20:24;100777.81;;;13.61;76.81
64253;BME280;50592;52.958;-7.470;2022-08-01T01:25:37;100777.91;;;13.51;77.34
64253;BME280;50592;52.958;-7.470;2022-08-01T01:28:10;100772.28;;;13.36;77.61
64253;BME280;50592;52.958;-7.470;2022-08-01T01:30:38;100769.31;;;13.39;77.59
64253;BME280;50592;52.958;-7.470;2022-08-01T01:33:08;100765.84;;;13.39;77.43
64253;BME280;50592;52.958;-7.470;2022-08-01T01:35:41;100771.47;;;13.36;77.41
64253;BME280;50592;52.958;-7.470;2022-08-01T01:38:10;100776.25;;;13.32;77.66
64253;BME280;50592;52.958;-7.470;2022-08-01T01:40:41;100769.38;;;13.21;77.81
64253;BME280;50592;52.958;-7.470;2022-08-01T01:43:09;100770.72;;;13.25;77.75
64253;BME280;50592;52.958;-7.470;2022-08-01T01:45:36;100765.25;;;13.27;77.80
64253;BME280;50592;52.958;-7.470;2022-08-01T01:48:03;100763.13;;;13.31;77.80
64253;BME280;50592;52.958;-7.470;2022-08-01T01:50:30;100755.00;;;13.32;77.49
64253;BME280;50592;52.958;-7.470;2022-08-01T01:52:57;100759.63;;;13.30;77.64
64253;BME280;50592;52.958;-7.470;2022-08-01T01:55:25;100769.06;;;13.24;77.88
64253;BME280;50592;52.958;-7.470;2022-08-01T01:57:52;100762.25;;;13.22;77.95
64253;BME280;50592;52.958;-7.470;2022-08-01T02:00:19;100747.44;;;13.19;77.95
64253;BME280;50592;52.958;-7.470;2022-08-01T02:02:45;100757.22;;;13.19;78.17
64253;BME280;50592;52.958;-7.470;2022-08-01T02:05:12;100755.41;;;13.19;78.00
64253;BME280;50592;52.958;-7.470;2022-08-01T02:07:39;100762.84;;;13.15;77.84
64253;BME280;50592;52.958;-7.470;2022-08-01T02:10:06;100765.66;;;13.14;78.25
64253;BME280;50592;52.958;-7.470;2022-08-01T02:12:36;100764.69;;;13.15;78.36
64253;BME280;50592;52.958;-7.470;2022-08-01T02:15:04;100761.50;;;13.11;78.76
64253;BME280;50592;52.958;-7.470;2022-08-01T02:17:31;100756.34;;;13.10;78.57
64253;BME280;50592;52.958;-7.470;2022-08-01T02:19:58;100764.84;;;13.13;78.96
64253;BME280;50592;52.958;-7.470;2022-08-01T02:22:37;100763.31;;;13.11;78.58
64253;BME280;50592;52.958;-7.470;2022-08-01T02:25:11;100765.13;;;13.10;78.62
64253;BME280;50592;52.958;-7.470;2022-08-01T02:27:57;100763.31;;;12.93;79.08
64253;BME280;50592;52.958;-7.470;2022-08-01T02:30:29;100760.81;;;12.91;79.42
64253;BME280;50592;52.958;-7.470;2022-08-01T02:33:11;100759.97;;;12.90;79.18
64253;BME280;50592;52.958;-7.470;2022-08-01T02:35:41;100744.53;;;12.86;79.71
64253;BME280;50592;52.958;-7.470;2022-08-01T02:38:10;100750.44;;;12.80;79.26
64253;BME280;50592;52.958;-7.470;2022-08-01T02:40:41;100739.13;;;12.77;79.56
64253;BME280;50592;52.958;-7.470;2022-08-01T02:43:10;100734.66;;;12.78;79.71
64253;BME280;50592;52.958;-7.470;2022-08-01T02:45:42;100742.63;;;12.78;79.81
64253;BME280;50592;52.958;-7.470;2022-08-01T02:48:13;100748.09;;;12.76;79.61
64253;BME280;50592;52.958;-7.470;2022-08-01T02:50:47;100752.53;;;12.76;79.76
64253;BME280;50592;52.958;-7.470;2022-08-01T02:53:14;100750.75;;;12.76;79.80
64253;BME280;50592;52.958;-7.470;2022-08-01T02:55:43;100744.28;;;12.79;79.95
64253;BME280;50592;52.958;-7.470;2022-08-01T02:58:15;100738.47;;;12.75;79.98
64253;BME280;50592;52.958;-7.470;2022-08-01T03:00:45;100735.28;;;12.72;79.81
64253;BME280;50592;52.958;-7.470;2022-08-01T03:03:13;100733.47;;;12.72;79.78
64253;BME280;50592;52.958;-7.470;2022-08-01T03:05:40;100733.31;;;12.74;80.04
64253;BME280;50592;52.958;-7.470;2022-08-01T03:08:09;100735.66;;;12.77;79.63
64253;BME280;50592;52.958;-7.470;2022-08-01T03:10:38;100726.56;;;12.80;79.79
64253;BME280;50592;52.958;-7.470;2022-08-01T03:13:06;100733.53;;;12.81;79.52
64253;BME280;50592;52.958;-7.470;2022-08-01T03:15:36;100731.47;;;12.74;79.59
64253;BME280;50592;52.958;-7.470;2022-08-01T03:18:05;100733.31;;;12.74;79.82
64253;BME280;50592;52.958;-7.470;2022-08-01T03:20:33;100727.16;;;12.73;79.76
64253;BME280;50592;52.958;-7.470;2022-08-01T03:23:02;100725.22;;;12.75;80.12
64253;BME280;50592;52.958;-7.470;2022-08-01T03:25:30;100728.69;;;12.76;80.25
64253;BME280;50592;52.958;-7.470;2022-08-01T03:27:59;100720.56;;;12.77;79.99
64253;BME280;50592;52.958;-7.470;2022-08-01T03:30:27;100718.91;;;12.76;79.82
64253;BME280;50592;52.958;-7.470;2022-08-01T03:32:55;100720.56;;;12.77;79.81
64253;BME280;50592;52.958;-7.470;2022-08-01T03:35:25;100720.25;;;12.81;79.92
64253;BME280;50592;52.958;-7.470;2022-08-01T03:37:54;100724.59;;;12.82;80.07
64253;BME280;50592;52.958;-7.470;2022-08-01T03:40:24;100724.22;;;12.76;79.99
64253;BME280;50592;52.958;-7.470;2022-08-01T03:42:59;100718.16;;;12.66;80.43
64253;BME280;50592;52.958;-7.470;2022-08-01T03:45:31;100704.38;;;12.62;80.60
64253;BME280;50592;52.958;-7.470;2022-08-01T03:48:02;100699.06;;;12.62;80.82
64253;BME280;50592;52.958;-7.470;2022-08-01T03:50:30;100715.44;;;12.58;80.72
64253;BME280;50592;52.958;-7.470;2022-08-01T03:53:01;100706.53;;;12.49;80.67
64253;BME280;50592;52.958;-7.470;2022-08-01T03:55:28;100702.25;;;12.48;81.02
64253;BME280;50592;52.958;-7.470;2022-08-01T03:57:56;100715.78;;;12.45;81.42
64253;BME280;50592;52.958;-7.470;2022-08-01T04:00:24;100707.16;;;12.43;80.83
64253;BME280;50592;52.958;-7.470;2022-08-01T04:02:51;100711.94;;;12.39;81.30
64253;BME280;50592;52.958;-7.470;2022-08-01T04:05:17;100702.28;;;12.38;80.82
64253;BME280;50592;52.958;-7.470;2022-08-01T04:07:49;100691.03;;;12.36;80.79
64253;BME280;50592;52.958;-7.470;2022-08-01T04:10:24;100703.28;;;12.37;80.90
64253;BME280;50592;52.958;-7.470;2022-08-01T04:12:51;100695.50;;;12.35;81.09
64253;BME280;50592;52.958;-7.470;2022-08-01T04:15:17;100690.03;;;12.37;80.92
64253;BME280;50592;52.958;-7.470;2022-08-01T04:17:43;100697.09;;;12.46;80.66
64253;BME280;50592;52.958;-7.470;2022-08-01T04:20:10;100685.72;;;12.54;80.58
64253;BME280;50592;52.958;-7.470;2022-08-01T04:22:36;100694.88;;;12.60;80.78
64253;BME280;50592;52.958;-7.470;2022-08-01T04:25:07;100697.09;;;12.64;80.47
64253;BME280;50592;52.958;-7.470;2022-08-01T04:27:37;100691.81;;;12.64;80.41
64253;BME280;50592;52.958;-7.470;2022-08-01T04:30:05;100694.31;;;12.66;80.28
64253;BME280;50592;52.958;-7.470;2022-08-01T04:32:34;100690.13;;;12.63;81.11
64253;BME280;50592;52.958;-7.470;2022-08-01T04:35:05;100686.25;;;12.58;81.01
64253;BME280;50592;52.958;-7.470;2022-08-01T04:37:32;100677.63;;;12.56;81.69
64253;BME280;50592;52.958;-7.470;2022-08-01T04:40:00;100680.56;;;12.52;81.46
64253;BME280;50592;52.958;-7.470;2022-08-01T04:42:26;100684.53;;;12.48;81.52
64253;BME280;50592;52.958;-7.470;2022-08-01T04:44:53;100688.81;;;12.49;81.59
64253;BME280;50592;52.958;-7.470;2022-08-01T04:47:19;100692.47;;;12.48;81.40
64253;BME280;50592;52.958;-7.470;2022-08-01T04:49:45;100689.81;;;12.48;81.52
64253;BME280;50592;52.958;-7.470;2022-08-01T04:52:11;100694.28;;;12.48;81.44
64253;BME280;50592;52.958;-7.470;2022-08-01T04:54:37;100681.56;;;12.51;81.43
64253;BME280;50592;52.958;-7.470;2022-08-01T04:57:04;100672.63;;;12.52;81.24
64253;BME280;50592;52.958;-7.470;2022-08-01T04:59:35;100667.47;;;12.51;81.25
64253;BME280;50592;52.958;-7.470;2022-08-01T05:02:05;100674.72;;;12.49;81.56
64253;BME280;50592;52.958;-7.470;2022-08-01T05:04:31;100677.31;;;12.40;81.25
64253;BME280;50592;52.958;-7.470;2022-08-01T05:06:57;100672.31;;;12.37;81.71
64253;BME280;50592;52.958;-7.470;2022-08-01T05:09:23;100675.63;;;12.39;81.66
64253;BME280;50592;52.958;-7.470;2022-08-01T05:11:49;100669.06;;;12.44;81.39
64253;BME280;50592;52.958;-7.470;2022-08-01T05:14:15;100671.56;;;12.45;81.39
64253;BME280;50592;52.958;-7.470;2022-08-01T05:16:40;100667.63;;;12.49;81.59
64253;BME280;50592;52.958;-7.470;2022-08-01T05:19:07;100662.47;;;12.48;81.34
64253;BME280;50592;52.958;-7.470;2022-08-01T05:21:34;100670.72;;;12.45;81.95
64253;BME280;50592;52.958;-7.470;2022-08-01T05:24:00;100667.53;;;12.41;81.96
64253;BME280;50592;52.958;-7.470;2022-08-01T05:26:25;100664.22;;;12.39;81.90
64253;BME280;50592;52.958;-7.470;2022-08-01T05:28:51;100665.34;;;12.36;82.14
64253;BME280;50592;52.958;-7.470;2022-08-01T05:31:17;100669.38;;;12.40;82.23
64253;BME280;50592;52.958;-7.470;2022-08-01T05:33:43;100660.56;;;12.40;82.56
64253;BME280;50592;52.958;-7.470;2022-08-01T05:36:09;100659.72;;;12.39;82.38
64253;BME280;50592;52.958;-7.470;2022-08-01T05:38:35;100664.44;;;12.46;82.11
64253;BME280;50592;52.958;-7.470;2022-08-01T05:41:01;100665.81;;;12.50;82.30
64253;BME280;50592;52.958;-7.470;2022-08-01T05:43:27;100665.28;;;12.46;82.06
64253;BME280;50592;52.958;-7.470;2022-08-01T05:45:53;100667.53;;;12.41;82.18
64253;BME280;50592;52.958;-7.470;2022-08-01T05:48:18;100668.13;;;12.35;82.19
64253;BME280;50592;52.958;-7.470;2022-08-01T05:50:44;100670.84;;;12.25;82.55
64253;BME280;50592;52.958;-7.470;2022-08-01T05:53:10;100672.59;;;12.16;83.34
64253;BME280;50592;52.958;-7.470;2022-08-01T05:55:36;100674.25;;;12.17;83.41
64253;BME280;50592;52.958;-7.470;2022-08-01T05:58:02;100674.94;;;12.19;83.57
64253;BME280;50592;52.958;-7.470;2022-08-01T06:00:28;100658.06;;;12.20;83.63
64253;BME280;50592;52.958;-7.470;2022-08-01T06:02:54;100660.03;;;12.18;83.80
64253;BME280;50592;52.958;-7.470;2022-08-01T06:05:19;100659.44;;;12.24;83.82
64253;BME280;50592;52.958;-7.470;2022-08-01T06:07:45;100658.53;;;12.34;84.32
64253;BME280;50592;52.958;-7.470;2022-08-01T06:10:11;100656.28;;;12.39;84.25
64253;BME280;50592;52.958;-7.470;2022-08-01T06:12:37;100646.41;;;12.49;84.52
64253;BME280;50592;52.958;-7.470;2022-08-01T06:15:05;100632.91;;;12.61;84.54
64253;BME280;50592;52.958;-7.470;2022-08-01T06:17:31;100636.16;;;12.73;84.39
64253;BME280;50592;52.958;-7.470;2022-08-01T06:19:57;100628.09;;;12.83;84.50
64253;BME280;50592;52.958;-7.470;2022-08-01T06:22:23;100628.03;;;12.93;84.45
64253;BME280;50592;52.958;-7.470;2022-08-01T06:24:49;100635.19;;;13.00;84.45
64253;BME280;50592;52.958;-7.470;2022-08-01T06:27:15;100635.41;;;13.07;85.08
64253;BME280;50592;52.958;-7.470;2022-08-01T06:29:40;100628.47;;;13.14;85.32
64253;BME280;50592;52.958;-7.470;2022-08-01T06:32:08;100631.81;;;13.17;86.05
64253;BME280;50592;52.958;-7.470;2022-08-01T06:34:35;100630.66;;;13.19;86.49
64253;BME280;50592;52.958;-7.470;2022-08-01T06:37:01;100628.22;;;13.26;86.70
64253;BME280;50592;52.958;-7.470;2022-08-01T06:39:27;100633.22;;;13.29;86.69
64253;BME280;50592;52.958;-7.470;2022-08-01T06:41:53;100621.28;;;13.33;87.31
64253;BME280;50592;52.958;-7.470;2022-08-01T06:44:19;100621.13;;;13.35;87.68
64253;BME280;50592;52.958;-7.470;2022-08-01T06:46:44;100628.44;;;13.33;87.91
64253;BME280;50592;52.958;-7.470;2022-08-01T06:49:10;100612.84;;;13.38;88.06
64253;BME280;50592;52.958;-7.470;2022-08-01T06:51:36;100620.81;;;13.38;88.46
64253;BME280;50592;52.958;-7.470;2022-08-01T06:54:02;100621.66;;;13.38;89.23
64253;BME280;50592;52.958;-7.470;2022-08-01T06:56:28;100618.88;;;13.48;89.30
64253;BME280;50592;52.958;-7.470;2022-08-01T06:58:54;100625.28;;;13.64;88.87
64253;BME280;50592;52.958;-7.470;2022-08-01T07:01:27;100616.34;;;13.73;88.61
64253;BME280;50592;52.958;-7.470;2022-08-01T07:03:53;100617.69;;;13.86;88.46
64253;BME280;50592;52.958;-7.470;2022-08-01T07:06:21;100624.69;;;13.95;88.04
64253;BME280;50592;52.958;-7.470;2022-08-01T07:08:47;100623.88;;;14.03;87.71
64253;BME280;50592;52.958;-7.470;2022-08-01T07:11:13;100616.59;;;14.13;87.64
64253;BME280;50592;52.958;-7.470;2022-08-01T07:13:39;100626.09;;;14.24;87.25
64253;BME280;50592;52.958;-7.470;2022-08-01T07:16:05;100625.09;;;14.34;86.84
64253;BME280;50592;52.958;-7.470;2022-08-01T07:18:30;100620.47;;;14.44;86.47
64253;BME280;50592;52.958;-7.470;2022-08-01T07:20:56;100631.94;;;14.53;86.10
64253;BME280;50592;52.958;-7.470;2022-08-01T07:23:22;100611.50;;;14.62;86.00
64253;BME280;50592;52.958;-7.470;2022-08-01T07:25:48;100614.13;;;14.79;86.06
64253;BME280;50592;52.958;-7.470;2022-08-01T07:28:15;100606.97;;;15.04;86.05
64253;BME280;50592;52.958;-7.470;2022-08-01T07:30:40;100610.72;;;15.27;85.74
64253;BME280;50592;52.958;-7.470;2022-08-01T07:33:08;100600.47;;;15.55;85.58
64253;BME280;50592;52.958;-7.470;2022-08-01T07:35:33;100603.19;;;15.79;85.55
64253;BME280;50592;52.958;-7.470;2022-08-01T07:37:59;100599.75;;;16.02;85.38
64253;BME280;50592;52.958;-7.470;2022-08-01T07:40:25;100595.75;;;16.29;84.67
64253;BME280;50592;52.958;-7.470;2022-08-01T07:42:51;100593.50;;;16.56;83.95
64253;BME280;50592;52.958;-7.470;2022-08-01T07:45:17;100592.91;;;16.84;83.24
64253;BME280;50592;52.958;-7.470;2022-08-01T07:47:43;100591.63;;;16.95;82.15
64253;BME280;50592;52.958;-7.470;2022-08-01T07:50:09;100588.88;;;17.04;80.82
64253;BME280;50592;52.958;-7.470;2022-08-01T07:52:35;100589.81;;;17.11;80.04
64253;BME280;50592;52.958;-7.470;2022-08-01T07:55:01;100582.38;;;17.21;79.30
64253;BME280;50592;52.958;-7.470;2022-08-01T07:57:27;100576.53;;;17.33;78.58
64253;BME280;50592;52.958;-7.470;2022-08-01T07:59:53;100586.41;;;17.32;77.92
64253;BME280;50592;52.958;-7.470;2022-08-01T08:02:19;100576.34;;;17.34;77.90
64253;BME280;50592;52.958;-7.470;2022-08-01T08:04:45;100581.13;;;17.39;77.00
64253;BME280;50592;52.958;-7.470;2022-08-01T08:07:11;100579.94;;;17.42;77.02
64253;BME280;50592;52.958;-7.470;2022-08-01T08:09:36;100582.25;;;17.45;76.92
64253;BME280;50592;52.958;-7.470;2022-08-01T08:12:02;100587.31;;;17.40;76.56
64253;BME280;50592;52.958;-7.470;2022-08-01T08:14:28;100590.91;;;17.32;76.57
64253;BME280;50592;52.958;-7.470;2022-08-01T08:16:55;100591.94;;;17.16;76.65
64253;BME280;50592;52.958;-7.470;2022-08-01T08:19:20;100588.50;;;17.07;76.63
64253;BME280;50592;52.958;-7.470;2022-08-01T08:21:46;100587.75;;;16.98;77.26
64253;BME280;50592;52.958;-7.470;2022-08-01T08:24:12;100589.34;;;16.92;77.42
64253;BME280;50592;52.958;-7.470;2022-08-01T08:26:56;100581.03;;;16.87;77.44
64253;BME280;50592;52.958;-7.470;2022-08-01T08:29:23;100575.22;;;16.83;77.88
64253;BME280;50592;52.958;-7.470;2022-08-01T08:31:49;100582.25;;;16.84;77.68
64253;BME280;50592;52.958;-7.470;2022-08-01T08:34:16;100578.34;;;16.87;77.76
64253;BME280;50592;52.958;-7.470;2022-08-01T08:36:42;100581.50;;;16.91;77.52
64253;BME280;50592;52.958;-7.470;2022-08-01T08:39:08;100580.78;;;16.97;77.70
64253;BME280;50592;52.958;-7.470;2022-08-01T08:41:34;100571.38;;;17.01;77.67
64253;BME280;50592;52.958;-7.470;2022-08-01T08:44:02;100575.72;;;17.02;77.56
64253;BME280;50592;52.958;-7.470;2022-08-01T08:46:28;100573.28;;;17.07;77.85
64253;BME280;50592;52.958;-7.470;2022-08-01T08:48:57;100558.53;;;17.20;77.66
64253;BME280;50592;52.958;-7.470;2022-08-01T08:51:25;100557.41;;;17.29;77.61
64253;BME280;50592;52.958;-7.470;2022-08-01T08:53:56;100551.75;;;17.39;77.29
64253;BME280;50592;52.958;-7.470;2022-08-01T08:56:24;100541.97;;;17.46;77.25
64253;BME280;50592;52.958;-7.470;2022-08-01T08:58:51;100536.34;;;17.56;77.58
64253;BME280;50592;52.958;-7.470;2022-08-01T09:01:17;100538.88;;;17.65;77.67
64253;BME280;50592;52.958;-7.470;2022-08-01T09:03:44;100535.72;;;17.76;77.92
64253;BME280;50592;52.958;-7.470;2022-08-01T09:06:10;100534.56;;;17.85;77.78
64253;BME280;50592;52.958;-7.470;2022-08-01T09:08:36;100528.25;;;17.93;77.46
64253;BME280;50592;52.958;-7.470;2022-08-01T09:11:03;100521.16;;;18.01;76.98
64253;BME280;50592;52.958;-7.470;2022-08-01T09:13:29;100527.56;;;18.06;76.35
64253;BME280;50592;52.958;-7.470;2022-08-01T09:15:55;100525.44;;;18.17;76.36
64253;BME280;50592;52.958;-7.470;2022-08-01T09:18:38;100523.44;;;18.26;75.67
64253;BME280;50592;52.958;-7.470;2022-08-01T09:23:40;100510.50;;;18.29;75.99
64253;BME280;50592;52.958;-7.470;2022-08-01T09:26:09;100510.56;;;18.36;75.82
64253;BME280;50592;52.958;-7.470;2022-08-01T09:28:35;100504.25;;;18.44;75.94
64253;BME280;50592;52.958;-7.470;2022-08-01T09:31:12;100512.28;;;18.51;75.16
64253;BME280;50592;52.958;-7.470;2022-08-01T09:33:55;100505.44;;;18.41;73.60
64253;BME280;50592;52.958;-7.470;2022-08-01T09:36:28;100502.09;;;18.32;73.64
64253;BME280;50592;52.958;-7.470;2022-08-01T09:39:14;100495.69;;;18.27;73.47
64253;BME280;50592;52.958;-7.470;2022-08-01T09:41:40;100496.50;;;18.27;73.49
64253;BME280;50592;52.958;-7.470;2022-08-01T09:44:06;100495.22;;;18.23;73.17
64253;BME280;50592;52.958;-7.470;2022-08-01T09:46:32;100486.13;;;18.17;73.13
64253;BME280;50592;52.958;-7.470;2022-08-01T09:49:05;100492.69;;;18.15;73.32
64253;BME280;50592;52.958;-7.470;2022-08-01T09:51:37;100503.41;;;18.15;73.67
64253;BME280;50592;52.958;-7.470;2022-08-01T09:54:04;100499.88;;;18.14;73.90
64253;BME280;50592;52.958;-7.470;2022-08-01T09:56:41;100488.41;;;17.98;74.49
64253;BME280;50592;52.958;-7.470;2022-08-01T09:59:11;100484.41;;;17.88;76.17
64253;BME280;50592;52.958;-7.470;2022-08-01T10:01:49;100488.50;;;17.83;76.83
64253;BME280;50592;52.958;-7.470;2022-08-01T10:04:17;100482.25;;;17.76;78.16
64253;BME280;50592;52.958;-7.470;2022-08-01T10:06:48;100485.41;;;17.65;78.38
64253;BME280;50592;52.958;-7.470;2022-08-01T10:09:28;100479.31;;;17.49;78.67
64253;BME280;50592;52.958;-7.470;2022-08-01T10:11:55;100488.91;;;17.43;78.89
64253;BME280;50592;52.958;-7.470;2022-08-01T10:14:24;100488.84;;;17.36;78.79
64253;BME280;50592;52.958;-7.470;2022-08-01T10:16:52;100489.78;;;17.29;79.04
64253;BME280;50592;52.958;-7.470;2022-08-01T10:19:21;100497.34;;;17.25;79.32
64253;BME280;50592;52.958;-7.470;2022-08-01T10:21:49;100504.06;;;17.21;79.78
64253;BME280;50592;52.958;-7.470;2022-08-01T10:24:18;100505.72;;;17.22;80.17
64253;BME280;50592;52.958;-7.470;2022-08-01T10:26:47;100498.63;;;17.29;80.21
64253;BME280;50592;52.958;-7.470;2022-08-01T10:29:15;100496.41;;;17.33;80.47
64253;BME280;50592;52.958;-7.470;2022-08-01T10:31:44;100496.66;;;17.38;80.86
64253;BME280;50592;52.958;-7.470;2022-08-01T10:34:12;100501.06;;;17.46;81.11
64253;BME280;50592;52.958;-7.470;2022-08-01T10:36:42;100493.13;;;17.53;81.13
64253;BME280;50592;52.958;-7.470;2022-08-01T10:39:10;100502.41;;;17.57;81.41
64253;BME280;50592;52.958;-7.470;2022-08-01T10:41:38;100493.13;;;17.53;81.64
64253;BME280;50592;52.958;-7.470;2022-08-01T10:44:08;100500.50;;;17.51;82.31
64253;BME280;50592;52.958;-7.470;2022-08-01T10:46:38;100499.88;;;17.48;83.36
64253;BME280;50592;52.958;-7.470;2022-08-01T10:49:13;100496.38;;;17.48;83.88
64253;BME280;50592;52.958;-7.470;2022-08-01T10:51:40;100493.09;;;17.31;86.58
64253;BME280;50592;52.958;-7.470;2022-08-01T10:54:07;100486.84;;;17.23;88.14
64253;BME280;50592;52.958;-7.470;2022-08-01T10:59:06;100482.06;;;17.19;87.86
64253;BME280;50592;52.958;-7.470;2022-08-01T11:01:32;100479.22;;;17.05;89.91
64253;BME280;50592;52.958;-7.470;2022-08-01T11:04:01;100479.13;;;16.98;90.65
64253;BME280;50592;52.958;-7.470;2022-08-01T11:09:58;100470.09;;;16.99;92.88
64253;BME280;50592;52.958;-7.470;2022-08-01T11:12:15;100471.19;;;17.05;94.02
64253;BME280;50592;52.958;-7.470;2022-08-01T11:20:11;100449.94;;;17.12;95.63
64253;BME280;50592;52.958;-7.470;2022-08-01T11:30:40;100421.03;;;17.38;96.83
64253;BME280;50592;52.958;-7.470;2022-08-01T11:33:06;100429.13;;;17.44;96.47
64253;BME280;50592;52.958;-7.470;2022-08-01T11:35:34;100414.94;;;17.44;96.48
64253;BME280;50592;52.958;-7.470;2022-08-01T11:38:27;100414.50;;;17.40;96.26
64253;BME280;50592;52.958;-7.470;2022-08-01T11:44:05;100401.25;;;17.54;96.85
64253;BME280;50592;52.958;-7.470;2022-08-01T11:52:28;100390.78;;;17.81;96.31
64253;BME280;50592;52.958;-7.470;2022-08-01T11:57:30;100385.00;;;17.77;95.94
64253;BME280;50592;52.958;-7.470;2022-08-01T11:59:58;100383.13;;;17.78;95.66
64253;BME280;50592;52.958;-7.470;2022-08-01T12:02:28;100388.69;;;17.76;95.74
64253;BME280;50592;52.958;-7.470;2022-08-01T12:07:24;100377.59;;;17.79;96.40
64253;BME280;50592;52.958;-7.470;2022-08-01T16:12:54;100099.47;;;19.30;100.00
64253;BME280;50592;52.958;-7.470;2022-08-01T16:15:20;100095.94;;;19.36;100.00
64253;BME280;50592;52.958;-7.470;2022-08-01T16:17:45;100098.41;;;19.38;100.00
64253;BME280;50592;52.958;-7.470;2022-08-01T16:20:11;100090.56;;;19.36;100.00
64253;BME280;50592;52.958;-7.470;2022-08-01T16:22:37;100092.81;;;19.39;100.00
64253;BME280;50592;52.958;-7.470;2022-08-01T16:25:04;100087.47;;;19.39;100.00
64253;BME280;50592;52.958;-7.470;2022-08-01T16:27:30;100093.44;;;19.41;100.00
64253;BME280;50592;52.958;-7.470;2022-08-01T16:29:56;100090.78;;;19.41;100.00
64253;BME280;50592;52.958;-7.470;2022-08-01T16:32:22;100084.97;;;19.44;100.00
64253;BME280;50592;52.958;-7.470;2022-08-01T16:34:48;100090.16;;;19.39;100.00
64253;BME280;50592;52.958;-7.470;2022-08-01T16:37:14;100075.91;;;19.39;100.00
64253;BME280;50592;52.958;-7.470;2022-08-01T16:39:40;100083.75;;;19.40;100.00
64253;BME280;50592;52.958;-7.470;2022-08-01T16:42:06;100074.50;;;19.36;100.00
64253;BME280;50592;52.958;-7.470;2022-08-01T16:44:32;100068.50;;;19.34;100.00
64253;BME280;50592;52.958;-7.470;2022-08-01T16:46:57;100070.16;;;19.35;100.00
64253;BME280;50592;52.958;-7.470;2022-08-01T16:49:23;100070.16;;;19.35;100.00
64253;BME280;50592;52.958;-7.470;2022-08-01T16:51:49;100062.09;;;19.35;100.00
64253;BME280;50592;52.958;-7.470;2022-08-01T16:54:15;100068.91;;;19.38;100.00
64253;BME280;50592;52.958;-7.470;2022-08-01T16:56:41;100062.72;;;19.37;100.00
64253;BME280;50592;52.958;-7.470;2022-08-01T16:59:06;100055.53;;;19.38;100.00
64253;BME280;50592;52.958;-7.470;2022-08-01T17:01:32;100048.31;;;19.38;100.00
64253;BME280;50592;52.958;-7.470;2022-08-01T17:03:59;100052.84;;;19.38;100.00
64253;BME280;50592;52.958;-7.470;2022-08-01T17:06:25;100050.16;;;19.38;100.00
64253;BME280;50592;52.958;-7.470;2022-08-01T17:08:51;100049.13;;;19.39;100.00
64253;BME280;50592;52.958;-7.470;2022-08-01T17:11:17;100051.00;;;19.38;100.00
64253;BME280;50592;52.958;-7.470;2022-08-01T17:13:43;100056.94;;;19.40;100.00
64253;BME280;50592;52.958;-7.470;2022-08-01T17:16:09;100049.53;;;19.42;100.00
64253;BME280;50592;52.958;-7.470;2022-08-01T17:18:36;100063.53;;;19.44;100.00
64253;BME280;50592;52.958;-7.470;2022-08-01T17:21:02;100055.50;;;19.44;100.00
64253;BME280;50592;52.958;-7.470;2022-08-01T17:23:28;100054.66;;;19.44;100.00
64253;BME280;50592;52.958;-7.470;2022-08-01T17:25:56;100050.78;;;19.40;100.00